Kittitas, Washington
Current Conditions -  °F | °C
As of 7:53 PM on Tuesday 27 Jan 2015 (Local Time) from KELN Reporting Station
Clear Clear  
Wind Chill: 44°   Ceiling: Unl
Heat Index: 49°   Visibility: 10mi
Dew Point: 40°   Wind: 12mph
Humidity: 71%   Direction: 310°NW
Pressure: 30.1"   Gusts: NA
Location:  46.98°N, 120.42°W
Report Text: KELN 280353Z AUTO 31010KT 10SM CLR 09/04 A3010 RMK AO2 SLP202 T00940044
Loading
Personal Weather Stations






























Interactive Weather Map New forecast layout! Learn more

10-Day Weather Forecast

Advertisements
Track Severe Weather on mobile